This is the latest recevied weather packets stored in our database for station/object BARLOW-WX. If no packets are shown the sender has not sent any weather packets the latest 1 day(s).
| Time | Temp. | Humidity | Pressure | Rain* | Wind** | Luminosity | Snow |
|---|---|---|---|---|---|---|---|
| 1778096785 | 11.67° C | 35% | 985.9 hPa | 0 mm | - | - | - |
| 1778094117 | 11.67° C | 35% | 985.9 hPa | 0 mm | - | - | - |
| 1778092295 | 12.22° C | 35% | 985.6 hPa | 0 mm | - | - | - |
| 1778080584 | 9.44° C | 44% | 985.5 hPa | 0 mm | - | - | - |
| 1778077901 | 8.33° C | 53% | 985.6 hPa | 0 mm | - | - | - |
| 1778075180 | 7.78° C | 58% | 984.6 hPa | 0 mm | - | - | - |
| 1778071584 | 6.11° C | 69% | 983.5 hPa | 0 mm | - | - | - |
| 1778064380 | 2.78° C | 68% | 982.4 hPa | 0 mm | - | - | - |
| 1778063499 | 2.78° C | 67% | 982.9 hPa | 0 mm | - | - | - |
| 1778062582 | 2.78° C | 67% | 982.9 hPa | 0 mm | - | - | - |
| 1778061723 | 3.33° C | 67% | 982.9 hPa | 0 mm | - | - | - |
| 1778056295 | 3.89° C | 70% | 982.1 hPa | 0 mm | - | - | - |
| 1778055380 | 3.89° C | 70% | 982.1 hPa | 0 mm | - | - | - |
| 1778051780 | 5° C | 67% | 982 hPa | 0 mm | - | - | - |
| 1778049980 | 5° C | 67% | 982.3 hPa | 0 mm | - | - | - |
| 1778049098 | 5.56° C | 67% | 982.3 hPa | 0 mm | - | - | - |
| 1778048180 | 5.56° C | 67% | 982.3 hPa | 0 mm | - | - | - |
| 1778047332 | 6.11° C | 67% | 982.3 hPa | 0 mm | - | - | - |
| 1778046382 | 6.11° C | 67% | 982.7 hPa | 0 mm | - | - | - |
| 1778043719 | 6.67° C | 66% | 982.1 hPa | 0 mm | - | - | - |
| 1778042781 | 6.67° C | 66% | 983.2 hPa | 0 mm | - | - | - |
| 1778040980 | 6.67° C | 70% | 982.6 hPa | 0 mm | - | - | - |
| 1778039178 | 6.67° C | 66% | 982.3 hPa | 0 mm | - | - | - |
| 1778037380 | 7.78° C | 59% | 982.3 hPa | 0 mm | - | - | - |
| 1778036530 | 7.78° C | 59% | 982.3 hPa | 0 mm | - | - | - |
* Rain latest hour (hover to see other rain measurements)
** Current wind speed in m/s (hover to see current wind gust speed)